createdAt,value
2022-09-04T00:00:08.048Z,100020.41
2022-09-04T00:02:52.878Z,100026.47
2022-09-04T00:05:26.749Z,100021.22
2022-09-04T00:07:59.262Z,100022.22
2022-09-04T00:10:32.219Z,100025.09
2022-09-04T00:13:07.239Z,100022.91
2022-09-04T00:15:44.942Z,100027.88
2022-09-04T00:18:18.285Z,100036.94
2022-09-04T00:20:51.835Z,100041.09
2022-09-04T00:23:22.143Z,100038.03
2022-09-04T00:25:58.631Z,100049.06
2022-09-04T00:28:35.620Z,100048.03
2022-09-04T00:31:16.117Z,100055.94
2022-09-04T00:33:52.785Z,100052.28
2022-09-04T00:36:23.520Z,100057.28
2022-09-04T00:38:56.986Z,100059.34
2022-09-04T00:41:28.157Z,100063.00
2022-09-04T00:44:38.516Z,100065.69
2022-09-04T00:47:30.684Z,100064.19
2022-09-04T00:50:23.803Z,100061.88
2022-09-04T00:53:18.707Z,100065.91
2022-09-04T00:56:00.171Z,100061.09
2022-09-04T00:58:38.365Z,100061.81
2022-09-04T01:01:06.791Z,100064.69
2022-09-04T01:03:59.402Z,100070.94
2022-09-04T01:06:41.793Z,100069.94
2022-09-04T01:09:33.530Z,100077.16
2022-09-04T01:12:11.093Z,100075.38
2022-09-04T01:14:44.310Z,100087.28
2022-09-04T01:17:27.754Z,100091.31
2022-09-04T01:20:08.591Z,100092.25
2022-09-04T01:23:06.854Z,100092.78
2022-09-04T01:25:56.151Z,100091.66
2022-09-04T01:28:30.818Z,100092.59
2022-09-04T01:31:05.481Z,100097.00
2022-09-04T01:33:54.868Z,100097.16
2022-09-04T01:36:42.895Z,100093.75
2022-09-04T01:39:11.327Z,100098.44
2022-09-04T01:41:46.389Z,100100.06
2022-09-04T01:44:14.672Z,100100.56
2022-09-04T01:47:04.440Z,100100.75
2022-09-04T01:49:37.961Z,100103.75
2022-09-04T01:52:17.486Z,100097.41
2022-09-04T01:54:54.318Z,100095.59
2022-09-04T01:57:36.845Z,100104.47
2022-09-04T02:00:09.667Z,100101.34
2022-09-04T02:02:55.965Z,100104.84
2022-09-04T02:05:32.715Z,100103.59
2022-09-04T02:08:12.165Z,100105.31
2022-09-04T02:10:47.331Z,100107.75
2022-09-04T02:13:23.267Z,100104.63
2022-09-04T02:16:02.744Z,100109.00
2022-09-04T02:18:43.621Z,100110.59
2022-09-04T02:21:19.571Z,100126.91
2022-09-04T02:23:54.160Z,100116.84
2022-09-04T02:26:28.214Z,100118.50
2022-09-04T02:29:03.902Z,100119.47
2022-09-04T02:31:38.797Z,100118.88
2022-09-04T02:34:11.004Z,100116.28
2022-09-04T02:36:50.109Z,100114.06
2022-09-04T02:39:33.683Z,100119.53
2022-09-04T02:42:10.780Z,100117.03
2022-09-04T02:44:52.545Z,100121.00
2022-09-04T02:47:29.133Z,100118.00
2022-09-04T02:50:06.784Z,100114.31
2022-09-04T02:52:56.805Z,100131.78
2022-09-04T02:55:44.759Z,100115.69
2022-09-04T02:58:22.640Z,100116.75
2022-09-04T03:01:01.727Z,100114.81
2022-09-04T03:03:35.949Z,100130.00
2022-09-04T03:06:09.878Z,100127.28
2022-09-04T03:08:46.155Z,100129.00
2022-09-04T03:11:19.200Z,100131.88
2022-09-04T03:13:52.061Z,100128.66
2022-09-04T03:16:28.102Z,100134.75
2022-09-04T03:19:16.569Z,100136.91
2022-09-04T03:22:03.966Z,100139.78
2022-09-04T03:24:37.139Z,100145.19
2022-09-04T03:27:08.311Z,100137.19
2022-09-04T03:29:43.755Z,100133.03
2022-09-04T03:32:19.163Z,100142.31
2022-09-04T03:34:52.461Z,100142.16
2022-09-04T03:37:31.718Z,100143.00
2022-09-04T03:40:26.041Z,100146.19
2022-09-04T03:43:08.569Z,100148.38
2022-09-04T03:45:44.567Z,100151.25
2022-09-04T03:48:28.687Z,100156.38
2022-09-04T03:51:01.195Z,100154.44
2022-09-04T03:53:39.359Z,100151.09
2022-09-04T03:56:30.910Z,100149.72
2022-09-04T03:59:04.874Z,100158.31
2022-09-04T04:01:43.199Z,100156.94
2022-09-04T04:04:38.093Z,100163.53
2022-09-04T04:07:12.646Z,100160.94
2022-09-04T04:09:55.736Z,100154.88
2022-09-04T04:12:39.238Z,100159.59
2022-09-04T04:15:17.629Z,100157.91
2022-09-04T04:18:01.244Z,100162.75
2022-09-04T04:20:41.219Z,100160.94
2022-09-04T04:23:30.592Z,100169.22
2022-09-04T04:26:10.553Z,100170.75
2022-09-04T04:29:11.486Z,100172.81
2022-09-04T04:32:10.039Z,100175.03
2022-09-04T04:34:48.083Z,100186.63
2022-09-04T04:37:26.420Z,100187.63
2022-09-04T04:40:03.683Z,100188.44
2022-09-04T04:42:41.985Z,100194.34
2022-09-04T04:45:38.177Z,100196.50
2022-09-04T04:48:37.797Z,100205.31
2022-09-04T04:51:20.823Z,100210.50
2022-09-04T04:53:59.529Z,100207.13
2022-09-04T04:56:36.848Z,100212.03
2022-09-04T04:59:20.762Z,100215.38
2022-09-04T05:02:00.675Z,100225.34
2022-09-04T05:04:40.621Z,100222.81
2022-09-04T05:07:17.816Z,100224.72
2022-09-04T05:09:59.204Z,100223.63
2022-09-04T05:12:49.570Z,100226.03
2022-09-04T05:15:24.292Z,100239.19
2022-09-04T05:17:56.095Z,100237.72
2022-09-04T05:20:40.044Z,100240.53
2022-09-04T05:23:28.730Z,100243.94
2022-09-04T05:26:08.204Z,100256.66
2022-09-04T05:28:47.262Z,100254.03
2022-09-04T05:31:24.008Z,100264.22
2022-09-04T05:34:01.455Z,100264.63
2022-09-04T05:36:42.784Z,100267.00
2022-09-04T05:39:21.131Z,100272.16
2022-09-04T05:42:06.843Z,100282.13
2022-09-04T05:44:52.783Z,100292.25
2022-09-04T05:47:32.624Z,100292.09
2022-09-04T05:50:32.475Z,100296.97
2022-09-04T05:53:22.165Z,100291.97
2022-09-04T05:56:19.871Z,100295.16
2022-09-04T05:59:09.687Z,100294.47
2022-09-04T06:02:04.614Z,100299.22
2022-09-04T06:05:08.358Z,100300.34
2022-09-04T06:07:41.835Z,100305.78
2022-09-04T06:10:18.227Z,100305.31
2022-09-04T06:13:11.188Z,100313.88
2022-09-04T06:15:51.743Z,100322.47
2022-09-04T06:18:43.334Z,100319.94
2022-09-04T06:21:40.092Z,100327.78
2022-09-04T06:24:26.679Z,100320.00
2022-09-04T06:27:14.219Z,100317.47
2022-09-04T06:29:57.079Z,100325.53
2022-09-04T06:32:56.115Z,100325.72
2022-09-04T06:35:36.414Z,100335.81
2022-09-04T06:38:18.837Z,100336.13
2022-09-04T06:40:59.476Z,100335.88
2022-09-04T06:43:38.011Z,100340.56
2022-09-04T06:46:17.820Z,100344.81
2022-09-04T06:48:57.446Z,100343.91
2022-09-04T06:51:45.168Z,100345.22
2022-09-04T06:54:19.009Z,100349.44
2022-09-04T06:57:05.801Z,100361.09
2022-09-04T06:59:56.617Z,100356.84
2022-09-04T07:02:41.747Z,100358.44
2022-09-04T07:05:22.699Z,100361.13
2022-09-04T07:08:01.096Z,100364.59
2022-09-04T07:10:34.274Z,100365.88
2022-09-04T07:13:38.831Z,100373.19
2022-09-04T07:16:21.956Z,100376.16
2022-09-04T07:19:13.895Z,100380.16
2022-09-04T07:21:52.315Z,100384.25
2022-09-04T07:24:46.200Z,100379.28
2022-09-04T07:27:22.209Z,100386.53
2022-09-04T07:29:55.601Z,100390.63
2022-09-04T07:32:30.706Z,100386.00
2022-09-04T07:35:07.848Z,100384.84
2022-09-04T07:37:44.471Z,100385.94
2022-09-04T07:40:17.687Z,100382.38
2022-09-04T07:42:53.297Z,100397.34
2022-09-04T07:45:30.999Z,100393.09
2022-09-04T07:48:12.687Z,100391.00
2022-09-04T07:51:03.577Z,100397.03
2022-09-04T07:53:53.707Z,100401.34
2022-09-04T07:56:32.306Z,100399.31
2022-09-04T07:59:21.263Z,100404.28
2022-09-04T08:02:09.044Z,100410.66
2022-09-04T08:05:03.319Z,100423.16
2022-09-04T08:08:17.900Z,100425.13
2022-09-04T08:11:03.565Z,100433.88
2022-09-04T08:14:00.472Z,100437.66
2022-09-04T08:16:36.169Z,100437.50
2022-09-04T08:19:19.674Z,100440.47
2022-09-04T08:21:53.173Z,100443.59
2022-09-04T08:24:53.358Z,100444.31
2022-09-04T08:27:44.237Z,100456.16
2022-09-04T08:30:15.781Z,100458.34
2022-09-04T08:33:24.623Z,100451.53
2022-09-04T08:36:01.739Z,100456.91
2022-09-04T08:38:56.512Z,100462.03
2022-09-04T08:42:20.922Z,100461.84
2022-09-04T08:45:22.291Z,100469.38
2022-09-04T08:48:32.560Z,100459.59
2022-09-04T08:51:34.579Z,100464.69
2022-09-04T08:54:37.133Z,100468.38
2022-09-04T08:57:35.187Z,100467.41
2022-09-04T09:00:09.868Z,100467.41
2022-09-04T09:03:15.138Z,100474.66
2022-09-04T09:06:17.611Z,100479.41
2022-09-04T09:09:31.699Z,100476.94
2022-09-04T09:12:28.260Z,100471.59
2022-09-04T09:15:26.486Z,100475.06
2022-09-04T09:18:03.934Z,100475.56
2022-09-04T09:20:48.719Z,100477.03
2022-09-04T09:23:19.826Z,100483.91
2022-09-04T09:25:57.797Z,100486.06
2022-09-04T09:29:03.741Z,100487.75
2022-09-04T09:32:31.041Z,100481.19
2022-09-04T09:35:37.135Z,100482.84
2022-09-04T09:38:32.205Z,100482.75
2022-09-04T09:41:43.524Z,100471.31
2022-09-04T09:44:37.394Z,100477.63
2022-09-04T09:47:23.269Z,100473.09
2022-09-04T09:50:13.742Z,100474.59
2022-09-04T09:53:23.738Z,100465.34
2022-09-04T09:56:19.697Z,100464.16
2022-09-04T09:59:26.132Z,100472.16
2022-09-04T10:02:34.973Z,100467.09
2022-09-04T10:05:44.906Z,100470.25
2022-09-04T10:08:58.451Z,100471.47
2022-09-04T10:12:04.152Z,100474.81
2022-09-04T10:14:57.058Z,100475.63
2022-09-04T10:17:55.883Z,100478.69
2022-09-04T10:20:43.675Z,100474.88
2022-09-04T10:24:07.271Z,100484.84
2022-09-04T10:27:28.595Z,100475.63
2022-09-04T10:30:08.509Z,100487.00
2022-09-04T10:33:11.706Z,100477.00
2022-09-04T10:36:01.273Z,100470.63
2022-09-04T10:39:17.401Z,100469.97
2022-09-04T10:42:10.469Z,100470.94
2022-09-04T10:45:05.129Z,100461.19
2022-09-04T10:47:59.102Z,100463.50
2022-09-04T10:50:38.115Z,100461.38
2022-09-04T10:53:28.578Z,100452.66
2022-09-04T10:56:10.098Z,100470.19
2022-09-04T10:58:58.450Z,100455.94
2022-09-04T11:02:08.166Z,100457.13
2022-09-04T11:05:07.830Z,100465.31
2022-09-04T11:08:13.030Z,100462.50
2022-09-04T11:11:05.850Z,100467.97
2022-09-04T11:14:06.715Z,100483.25
2022-09-04T11:17:11.119Z,100475.19
2022-09-04T11:20:18.104Z,100467.47
2022-09-04T11:23:34.538Z,100466.44
2022-09-04T11:26:39.356Z,100454.16
2022-09-04T11:29:25.884Z,100442.78
2022-09-04T11:32:15.922Z,100454.13
2022-09-04T11:35:14.047Z,100457.81
2022-09-04T11:38:10.251Z,100464.75
2022-09-04T11:41:28.469Z,100461.25
2022-09-04T11:44:36.799Z,100463.41
2022-09-04T11:47:25.541Z,100458.03
2022-09-04T11:50:24.361Z,100458.97
2022-09-04T11:53:43.464Z,100452.25
2022-09-04T11:56:39.212Z,100456.13
2022-09-04T11:59:27.918Z,100466.78
2022-09-04T12:02:30.836Z,100467.28
2022-09-04T12:05:16.864Z,100450.66
2022-09-04T12:08:04.809Z,100440.84
2022-09-04T12:10:52.535Z,100446.63
2022-09-04T12:13:45.210Z,100437.38
2022-09-04T12:16:33.815Z,100436.88
2022-09-04T12:19:31.127Z,100448.78
2022-09-04T12:22:20.567Z,100440.31
2022-09-04T12:25:08.132Z,100437.44
2022-09-04T12:28:02.704Z,100430.72
2022-09-04T12:30:48.554Z,100439.59
2022-09-04T12:33:38.669Z,100451.66
2022-09-04T12:36:33.289Z,100453.34
2022-09-04T12:39:49.294Z,100452.00
2022-09-04T12:42:22.259Z,100442.09
2022-09-04T12:45:03.532Z,100433.06
2022-09-04T12:47:43.785Z,100434.91
2022-09-04T12:50:29.851Z,100445.69
2022-09-04T12:53:19.292Z,100463.06
2022-09-04T12:56:00.940Z,100469.75
2022-09-04T12:58:42.919Z,100460.00
2022-09-04T13:01:17.339Z,100453.09
2022-09-04T13:03:58.934Z,100450.75
2022-09-04T13:06:38.969Z,100449.81
2022-09-04T13:09:18.945Z,100446.97
2022-09-04T13:11:57.784Z,100452.09
2022-09-04T13:14:44.121Z,100454.00
2022-09-04T13:17:21.700Z,100435.31
2022-09-04T13:19:55.909Z,100448.59
2022-09-04T13:22:39.518Z,100441.13
2022-09-04T13:25:16.144Z,100424.81
2022-09-04T13:28:04.718Z,100438.56
2022-09-04T13:30:36.171Z,100421.25
2022-09-04T13:33:18.535Z,100428.53
2022-09-04T13:35:59.619Z,100426.38
2022-09-04T13:39:02.132Z,100438.41
2022-09-04T13:42:10.920Z,100434.34
2022-09-04T13:45:05.966Z,100451.72
2022-09-04T13:47:45.514Z,100449.94
2022-09-04T13:50:25.516Z,100431.97
2022-09-04T13:52:59.697Z,100415.84
2022-09-04T13:55:36.490Z,100419.34
2022-09-04T13:58:11.525Z,100420.97
2022-09-04T14:00:47.015Z,100424.72
2022-09-04T14:03:27.041Z,100434.81
2022-09-04T14:05:55.413Z,100421.31
2022-09-04T14:08:25.576Z,100422.31
2022-09-04T14:11:24.337Z,100434.72
2022-09-04T14:14:21.260Z,100422.81
2022-09-04T14:16:49.688Z,100410.41
2022-09-04T14:19:36.415Z,100401.44
2022-09-04T14:22:17.630Z,100412.81
2022-09-04T14:24:56.416Z,100413.91
2022-09-04T14:27:33.353Z,100415.84
2022-09-04T14:30:08.532Z,100428.31
2022-09-04T14:32:58.024Z,100438.22
2022-09-04T14:35:36.019Z,100419.06
2022-09-04T14:38:36.362Z,100421.75
2022-09-04T14:41:20.583Z,100421.22
2022-09-04T14:44:07.001Z,100417.94
2022-09-04T14:46:41.409Z,100421.09
2022-09-04T14:49:15.514Z,100423.81
2022-09-04T14:51:48.802Z,100406.03
2022-09-04T14:54:26.300Z,100403.66
2022-09-04T14:56:58.084Z,100411.00
2022-09-04T14:59:33.051Z,100402.59
2022-09-04T15:02:18.479Z,100409.13
2022-09-04T15:04:51.629Z,100426.28
2022-09-04T15:07:32.864Z,100415.41
2022-09-04T15:10:11.122Z,100412.06
2022-09-04T15:12:44.107Z,100418.97
2022-09-04T15:15:20.794Z,100422.41
2022-09-04T15:17:54.101Z,100414.72
2022-09-04T15:20:25.383Z,100403.59
2022-09-04T15:22:59.780Z,100405.94
2022-09-04T15:25:59.116Z,100412.66
2022-09-04T15:28:38.691Z,100425.47
2022-09-04T15:31:16.823Z,100425.28
2022-09-04T15:33:49.053Z,100430.50
2022-09-04T15:36:24.894Z,100416.81
2022-09-04T15:38:56.954Z,100423.63
2022-09-04T15:41:37.248Z,100427.16
2022-09-04T15:44:16.623Z,100423.03
2022-09-04T15:46:58.918Z,100424.88
2022-09-04T15:49:40.811Z,100423.06
2022-09-04T15:52:24.576Z,100417.03
2022-09-04T15:55:10.643Z,100415.81
2022-09-04T15:57:59.813Z,100412.41
2022-09-04T16:00:32.463Z,100398.84
2022-09-04T16:03:12.174Z,100399.38
2022-09-04T16:05:45.619Z,100392.56
2022-09-04T16:08:23.549Z,100393.84
2022-09-04T16:11:00.152Z,100392.28
2022-09-04T16:13:46.545Z,100391.94
2022-09-04T16:16:20.457Z,100383.31
2022-09-04T16:19:02.662Z,100395.44
2022-09-04T16:21:43.199Z,100395.75
2022-09-04T16:24:16.488Z,100403.97
2022-09-04T16:26:49.281Z,100390.09
2022-09-04T16:29:36.011Z,100388.47
2022-09-04T16:32:07.102Z,100391.63
2022-09-04T16:34:46.987Z,100402.53
2022-09-04T16:37:20.445Z,100393.09
2022-09-04T16:40:00.678Z,100386.34
2022-09-04T16:42:38.235Z,100371.38
2022-09-04T16:45:15.453Z,100379.84
2022-09-04T16:47:51.775Z,100380.19
2022-09-04T16:50:28.864Z,100377.31
2022-09-04T16:53:13.442Z,100373.84
2022-09-04T16:55:59.186Z,100388.16
2022-09-04T16:58:43.279Z,100379.78
2022-09-04T17:01:18.956Z,100380.41
2022-09-04T17:04:13.565Z,100382.88
2022-09-04T17:07:00.299Z,100383.81
2022-09-04T17:09:35.504Z,100387.44
2022-09-04T17:12:18.196Z,100381.50
2022-09-04T17:14:54.337Z,100375.06
2022-09-04T17:17:31.393Z,100372.03
2022-09-04T17:20:10.324Z,100380.22
2022-09-04T17:29:01.037Z,100370.88
2022-09-04T17:29:10.112Z,100365.47
2022-09-04T17:29:19.234Z,100358.28
2022-09-04T17:31:45.627Z,100365.81
2022-09-04T17:40:25.126Z,100365.09
2022-09-04T17:40:44.001Z,100362.47
2022-09-04T17:40:48.439Z,100365.00
2022-09-04T17:43:22.209Z,100362.69
2022-09-04T17:46:02.651Z,100361.47
2022-09-04T17:48:33.865Z,100363.69
2022-09-04T17:51:05.279Z,100368.56
2022-09-04T17:53:38.932Z,100355.00
2022-09-04T17:56:15.832Z,100366.41
2022-09-04T17:58:50.350Z,100363.78
2022-09-04T18:01:23.422Z,100367.78
2022-09-04T18:04:22.030Z,100362.34
2022-09-04T18:06:59.010Z,100373.97
2022-09-04T18:09:37.518Z,100365.97
2022-09-04T18:12:18.155Z,100374.69
2022-09-04T18:15:25.249Z,100375.06
2022-09-04T18:17:54.660Z,100384.72
2022-09-04T18:20:29.471Z,100385.09
2022-09-04T18:23:16.480Z,100385.00
2022-09-04T18:25:50.784Z,100376.31
2022-09-04T18:28:27.236Z,100383.91
2022-09-04T18:37:06.173Z,100386.91
2022-09-04T18:37:17.224Z,100392.09
2022-09-04T18:37:23.607Z,100395.00
2022-09-04T18:39:51.574Z,100391.66
2022-09-04T18:47:58.113Z,100399.28
2022-09-04T18:50:29.883Z,100392.78
2022-09-04T18:50:40.369Z,100395.09
2022-09-04T18:51:21.857Z,100396.63
2022-09-04T18:53:54.081Z,100402.63
2022-09-04T18:56:26.868Z,100406.63
2022-09-04T18:59:01.314Z,100414.28
2022-09-04T19:01:41.064Z,100406.53
2022-09-04T19:04:32.828Z,100404.91
2022-09-04T19:07:07.603Z,100411.41
2022-09-04T19:09:58.875Z,100418.50
2022-09-04T19:12:46.620Z,100417.53
2022-09-04T19:15:37.089Z,100416.00
2022-09-04T19:18:17.401Z,100423.94
2022-09-04T19:20:50.002Z,100425.13
2022-09-04T19:23:27.792Z,100422.47
2022-09-04T19:26:01.362Z,100423.63
2022-09-04T19:28:53.137Z,100422.59
2022-09-04T19:31:31.355Z,100429.72
2022-09-04T19:34:06.534Z,100431.50
2022-09-04T19:36:40.459Z,100429.97
2022-09-04T19:45:56.851Z,100418.19
2022-09-04T19:46:18.372Z,100426.97
2022-09-04T19:46:19.900Z,100414.75
2022-09-04T19:48:22.094Z,100420.66
2022-09-04T19:53:19.777Z,100433.16
2022-09-04T19:53:57.532Z,100428.50
2022-09-04T19:56:31.892Z,100427.97
2022-09-04T19:59:15.575Z,100436.22
2022-09-04T20:01:48.579Z,100436.84
2022-09-04T20:04:33.330Z,100433.16
2022-09-04T20:07:10.725Z,100437.19
2022-09-04T20:09:44.518Z,100435.47
2022-09-04T20:12:19.070Z,100432.31
2022-09-04T20:14:55.274Z,100431.16
2022-09-04T20:17:39.664Z,100430.59
2022-09-04T20:20:19.593Z,100431.22
2022-09-04T20:23:00.328Z,100429.81
2022-09-04T20:25:49.145Z,100431.09
2022-09-04T20:28:25.142Z,100424.84
2022-09-04T20:31:35.298Z,100429.97
2022-09-04T20:34:09.520Z,100435.84
2022-09-04T20:36:49.016Z,100432.63
2022-09-04T20:39:27.748Z,100429.38
2022-09-04T20:41:59.585Z,100433.56
2022-09-04T20:44:55.194Z,100430.75
2022-09-04T20:52:50.799Z,100434.16
2022-09-04T20:52:51.291Z,100438.13
2022-09-04T20:53:25.100Z,100434.03
2022-09-04T20:56:20.646Z,100426.34
2022-09-04T21:03:06.534Z,100426.44
2022-09-04T21:03:17.386Z,100437.34
2022-09-04T21:05:28.899Z,100433.50
2022-09-04T21:08:08.354Z,100433.34
2022-09-04T21:10:42.552Z,100439.19
2022-09-04T21:13:20.065Z,100431.44
2022-09-04T21:15:59.223Z,100429.78
2022-09-04T21:19:11.354Z,100441.00
2022-09-04T21:21:50.825Z,100432.78
2022-09-04T21:24:44.901Z,100436.81
2022-09-04T21:27:45.845Z,100439.41
2022-09-04T21:30:19.129Z,100439.69
2022-09-04T21:33:04.127Z,100446.38
2022-09-04T21:35:55.694Z,100450.50
2022-09-04T21:39:00.208Z,100454.09
2022-09-04T21:41:49.476Z,100459.94
2022-09-04T21:44:37.131Z,100464.09
2022-09-04T21:47:31.355Z,100467.44
2022-09-04T21:50:39.250Z,100469.63
2022-09-04T21:53:41.935Z,100474.91
2022-09-04T21:59:36.719Z,100470.50
2022-09-04T22:02:39.554Z,100472.75
2022-09-04T22:02:54.425Z,100472.75
2022-09-04T22:05:33.761Z,100473.84
2022-09-04T22:12:05.038Z,100480.66
2022-09-04T22:13:30.626Z,100475.13
2022-09-04T22:14:16.667Z,100477.22
2022-09-04T22:17:04.810Z,100475.97
2022-09-04T22:20:15.021Z,100475.69
2022-09-04T22:23:20.527Z,100482.19
2022-09-04T22:26:23.611Z,100483.72
2022-09-04T22:29:18.506Z,100484.44
2022-09-04T22:32:33.819Z,100473.63
2022-09-04T22:35:43.520Z,100474.44
2022-09-04T22:38:32.936Z,100483.03
2022-09-04T22:41:22.575Z,100479.44
2022-09-04T22:44:06.377Z,100476.81
2022-09-04T22:46:45.241Z,100484.97
2022-09-04T22:49:47.435Z,100478.91
2022-09-04T22:52:35.475Z,100480.97
2022-09-04T22:55:39.542Z,100473.31
2022-09-04T22:58:29.929Z,100474.16
2022-09-04T23:01:15.199Z,100477.47
2022-09-04T23:04:04.973Z,100475.09
2022-09-04T23:11:59.913Z,100486.44
2022-09-04T23:13:58.661Z,100481.75
2022-09-04T23:13:59.148Z,100490.94
2022-09-04T23:16:32.589Z,100496.91
2022-09-04T23:23:38.449Z,100488.84
2022-09-04T23:26:36.243Z,100492.28
2022-09-04T23:26:52.826Z,100500.38
2022-09-04T23:28:27.720Z,100501.38
2022-09-04T23:31:08.820Z,100501.09
2022-09-04T23:34:07.336Z,100503.53
2022-09-04T23:37:13.842Z,100503.19
2022-09-04T23:40:04.775Z,100515.84
2022-09-04T23:42:56.562Z,100509.44
2022-09-04T23:45:52.854Z,100521.19
2022-09-04T23:48:54.249Z,100511.63
2022-09-04T23:51:30.682Z,100508.31
2022-09-04T23:54:33.514Z,100502.38
2022-09-04T23:57:11.135Z,100492.47
